KE7YUP Weather Reports


Display with metric or nautical units.
time (UTC)temp
F
wind
direction
speed
MPH
gust
MPH
rain 1hr
in
rain 24hr
in
rain mn
in
humidity
%
barometer
mb
20220523203617 58 40 10.0 13.0 0.00 0.00 0.00 30 1020.1
20220523202619 58 4 12.0 16.0 0.00 0.00 0.00 30 1020.3
20220523201618 57 2 9.0 14.0 0.00 0.00 0.00 31 1020.0
20220523200617 57 8 16.0 18.0 0.00 0.00 0.00 31 1020.1
20220523195617 57 10 9.0 16.0 0.00 0.00 0.00 32 1020.1
20220523194617 57 7 10.0 20.0 0.00 0.00 0.00 33 1020.1
20220523193616 57 357 9.0 14.0 0.00 0.00 0.00 34 1020.3
20220523192616 57 15 9.0 12.0 0.00 0.00 0.00 32 1020.3
20220523191616 55 41 9.0 15.0 0.00 0.00 0.00 34 1020.0
20220523190618 55 46 10.0 12.0 0.00 0.00 0.00 34 1020.4
20220523185617 56 20 7.0 12.0 0.00 0.00 0.00 35 1020.4
20220523184616 55 34 9.0 13.0 0.00 0.00 0.00 35 1020.5
20220523183617 55 10 10.0 15.0 0.00 0.00 0.00 36 1020.7
20220523182616 55 25 12.0 22.0 0.00 0.00 0.00 36 1020.7
20220523181617 55 43 4.0 11.0 0.00 0.00 0.00 35 1020.8
20220523180617 54 68 8.0 13.0 0.00 0.00 0.00 37 1020.8
20220523175616 54 42 12.0 16.0 0.00 0.00 0.00 37 1020.9
20220523174617 53 110 2.0 10.0 0.00 0.00 0.00 39 1020.6
20220523173617 53 19 10.0 13.0 0.00 0.00 0.00 39 1021.1
20220523172616 52 3 4.0 9.0 0.00 0.00 0.00 38 1020.9
20220523171616 52 8 7.0 11.0 0.00 0.00 0.00 38 1021.0
20220523170616 52 25 9.0 15.0 0.00 0.00 0.00 39 1021.2
20220523165617 52 359 7.0 11.0 0.00 0.00 0.00 39 1021.5
20220523164616 52 115 2.0 3.0 0.00 0.00 0.00 42 1021.5
20220523163616 52 31 9.0 11.0 0.00 0.00 0.00 40 1021.1
20220523162616 52 12 3.0 12.0 0.00 0.00 0.00 42 1021.3
20220523161616 51 355 5.0 10.0 0.00 0.00 0.00 43 1021.1
20220523160616 51 10 7.0 15.0 0.00 0.00 0.00 45 1021.1
20220523155616 50 30 7.0 11.0 0.00 0.00 0.00 44 1021.0
20220523154617 50 32 9.0 12.0 0.00 0.00 0.00 44 1021.0
20220523153617 50 40 5.0 12.0 0.00 0.00 0.00 44 1021.0
20220523152616 50 39 7.0 12.0 0.00 0.00 0.00 46 1021.0
20220523151616 50 28 6.0 9.0 0.00 0.00 0.00 45 1021.1
20220523150616 49 26 6.0 9.0 0.00 0.00 0.00 47 1020.9
20220523145615 49 16 8.0 12.0 0.00 0.00 0.00 48 1020.7
20220523144617 49 8 9.0 12.0 0.00 0.00 0.00 49 1020.6
20220523143617 48 359 9.0 15.0 0.00 0.00 0.00 50 1020.3
20220523142615 49 10 7.0 10.0 0.00 0.00 0.00 50 1020.6
20220523141616 48 37 6.0 10.0 0.00 0.00 0.00 50 1020.8
20220523140615 48 4 9.0 12.0 0.00 0.00 0.00 51 1020.8
20220523135615 48 359 11.0 15.0 0.00 0.00 0.00 49 1020.8
20220523134615 47 23 7.0 12.0 0.00 0.00 0.00 50 1020.8
20220523133616 47 16 7.0 13.0 0.00 0.00 0.00 52 1020.8
20220523132615 46 13 8.0 14.0 0.00 0.00 0.00 53 1020.8
20220523131616 45 334 3.0 6.0 0.00 0.00 0.00 55 1020.8
20220523130615 44 277 2.0 4.0 0.00 0.00 0.00 57 1020.7
20220523125615 43 17 5.0 10.0 0.00 0.00 0.00 60 1020.6
20220523124615 43 5 6.0 16.0 0.00 0.00 0.00 61 1021.3
20220523123615 43 352 5.0 9.0 0.00 0.00 0.00 63 1021.7
20220523122616 42 341 5.0 8.0 0.00 0.00 0.00 64 1021.7
20220523121615 42 360 14.0 19.0 0.00 0.00 0.00 64 1021.6
20220523120616 42 16 5.0 10.0 0.00 0.00 0.00 62 1021.5
20220523115616 42 313 3.0 11.0 0.00 0.00 0.00 61 1021.2
20220523114616 42 310 6.0 11.0 0.00 0.00 0.00 60 1021.1
20220523113616 43 15 5.0 8.0 0.00 0.00 0.00 59 1021.4
20220523112615 43 355 5.0 9.0 0.00 0.00 0.00 59 1021.5
20220523111616 43 3 10.0 15.0 0.00 0.00 0.00 57 1021.5
20220523110615 43 355 3.0 9.0 0.00 0.00 0.00 55 1021.5
20220523105615 44 13 7.0 10.0 0.00 0.00 0.00 54 1021.8
20220523104615 44 346 8.0 13.0 0.00 0.00 0.00 51 1021.8
20220523103616 45 359 7.0 15.0 0.00 0.00 0.00 48 1022.2
20220523102616 45 333 9.0 16.0 0.00 0.00 0.00 48 1021.9
20220523101616 45 358 12.0 17.0 0.00 0.00 0.00 48 1021.9
20220523100615 45 2 11.0 15.0 0.00 0.00 0.00 48 1022.1
20220523095615 45 2 7.0 13.0 0.00 0.00 0.00 48 1022.0
20220523094615 45 359 13.0 19.0 0.00 0.00 0.00 50 1022.0
20220523093615 45 0 12.0 20.0 0.00 0.00 0.00 49 1021.9
20220523092616 45 351 12.0 17.0 0.00 0.00 0.00 48 1022.1
20220523091616 45 353 12.0 21.0 0.00 0.00 0.00 48 1021.9
20220523090615 45 354 10.0 18.0 0.00 0.00 0.00 47 1022.1
20220523085617 46 0 8.0 15.0 0.00 0.00 0.00 47 1022.6
20220523084617 46 7 8.0 15.0 0.00 0.00 0.00 45 1022.6
20220523083618 46 359 12.0 17.0 0.00 0.00 0.00 44 1022.6
20220523082618 46 356 11.0 21.0 0.00 0.00 0.00 42 1022.5
20220523081617 46 355 10.0 19.0 0.00 0.00 0.00 43 1022.5
20220523080617 46 357 9.0 18.0 0.00 0.00 0.00 44 1022.5
20220523075618 46 7 6.0 17.0 0.00 0.00 0.00 45 1022.6
20220523074617 46 1 8.0 15.0 0.00 0.00 0.00 44 1022.5
20220523073618 46 355 7.0 14.0 0.00 0.00 0.00 43 1022.6
20220523072617 46 14 9.0 15.0 0.00 0.00 0.00 42 1022.4
20220523071617 46 13 5.0 14.0 0.00 0.00 0.00 44 1022.5
20220523070617 47 25 18.0 23.0 0.00 0.00 0.00 41 1022.0
20220523070532 47 0 8.0 16.0 0.00 0.00 0.00 38 1022.1
20220523065316 47 47 5.0 20.0 0.00 0.00 0.00 38 1021.8
20220523064317 48 48 10.0 16.0 0.00 0.00 0.00 38 1021.8
20220523063318 48 323 6.0 13.0 0.00 0.00 0.00 38 1021.8
20220523062317 48 346 7.0 13.0 0.00 0.00 0.00 39 1022.0
20220523061317 48 22 5.0 15.0 0.00 0.00 0.00 42 1022.1
20220523060317 48 5 10.0 17.0 0.00 0.00 0.00 44 1021.9
20220523055317 48 0 10.0 21.0 0.00 0.00 0.00 47 1021.8
20220523054315 48 359 13.0 25.0 0.00 0.00 0.00 46 1021.8
20220523053317 49 8 6.0 20.0 0.00 0.00 0.00 45 1021.7
20220523052316 49 360 9.0 27.0 0.00 0.00 0.00 43 1021.4
20220523051316 49 355 8.0 20.0 0.00 0.00 0.00 43 1021.3
20220523050317 50 3 11.0 20.0 0.00 0.00 0.00 43 1021.7
20220523050217 50 0 20.0 23.0 0.00 0.00 0.00 44 1021.7
20220523043236 50 0 14.0 21.0 0.00 0.00 0.00 45 1021.3
20220523043016 50 2 14.0 26.0 0.00 0.00 0.00 45 1021.3
20220523042016 50 4 13.0 26.0 0.00 0.00 0.00 45 1021.0
20220523041016 50 2 11.0 17.0 0.00 0.00 0.00 45 1021.1
20220523040015 50 21 10.0 17.0 0.00 0.00 0.00 46 1020.6
20220523035015 50 360 5.0 15.0 0.00 0.00 0.00 46 1020.4
20220523034017 51 38 4.0 18.0 0.00 0.00 0.00 45 1020.3
20220523033017 51 11 13.0 21.0 0.00 0.00 0.00 45 1019.9
20220523032015 51 11 12.0 22.0 0.00 0.00 0.00 45 1019.8
20220523031016 51 19 15.0 21.0 0.00 0.00 0.00 46 1019.6
20220523030015 51 7 13.0 26.0 0.00 0.00 0.00 45 1018.9
20220523025017 51 24 13.0 22.0 0.00 0.00 0.00 45 1018.5
20220523024015 51 354 12.0 33.0 0.00 0.00 0.00 44 1018.1
20220523023015 51 9 18.0 28.0 0.00 0.00 0.00 44 1018.2
20220523022016 52 1 25.0 56.0 0.00 0.00 0.00 44 1017.6
20220523021015 52 4 21.0 32.0 0.00 0.00 0.00 44 1017.4
20220523020015 53 7 17.0 30.0 0.00 0.00 0.00 44 1017.5
20220523015016 53 10 15.0 28.0 0.00 0.00 0.00 44 1017.6
20220523014015 54 4 16.0 33.0 0.00 0.00 0.00 43 1017.8
20220523013015 54 2 16.0 33.0 0.00 0.00 0.00 43 1016.6
20220523012015 55 3 27.0 37.0 0.00 0.00 0.00 43 1016.1
20220523011017 56 359 27.0 37.0 0.00 0.00 0.00 38 1016.3
20220523010015 57 358 23.0 35.0 0.00 0.00 0.00 37 1016.4
20220523005016 60 357 22.0 37.0 0.00 0.00 0.00 32 1016.8
20220523004016 64 356 18.0 25.0 0.00 0.00 0.00 22 1017.5
20220523003015 65 334 7.0 14.0 0.00 0.00 0.00 19 1017.4
20220523002016 64 357 6.0 9.0 0.00 0.00 0.00 18 1016.8
20220523001015 64 25 7.0 12.0 0.00 0.00 0.00 18 1016.8
20220523000016 64 28 5.0 11.0 0.00 0.00 0.00 18 1016.4
20220522235015 64 35 7.0 15.0 0.00 0.00 0.00 18 1016.2
20220522234016 64 36 7.0 11.0 0.00 0.00 0.00 17 1016.3
20220522233015 64 19 6.0 9.0 0.00 0.00 0.00 17 1016.2
20220522232015 64 37 4.0 10.0 0.00 0.00 0.00 16 1016.2
20220522231015 64 41 9.0 13.0 0.00 0.00 0.00 16 1016.4
20220522230015 64 44 11.0 14.0 0.00 0.00 0.00 16 1016.9
20220522225015 64 54 7.0 10.0 0.00 0.00 0.00 17 1017.3
20220522224017 64 9 5.0 9.0 0.00 0.00 0.00 17 1017.3
20220522223019 64 31 3.0 5.0 0.00 0.00 0.00 17 1016.9
20220522222018 64 39 7.0 11.0 0.00 0.00 0.00 17 1016.9
20220522221019 64 73 7.0 11.0 0.00 0.00 0.00 17 1017.1
20220522220018 64 38 8.0 10.0 0.00 0.00 0.00 18 1017.0
20220522215017 64 55 6.0 10.0 0.00 0.00 0.00 17 1017.0
20220522214017 64 1 8.0 12.0 0.00 0.00 0.00 17 1016.9
20220522213019 64 294 3.0 4.0 0.00 0.00 0.00 17 1017.3
20220522212017 64 19 9.0 15.0 0.00 0.00 0.00 17 1017.0
20220522211016 65 25 9.0 13.0 0.00 0.00 0.00 16 1017.3
20220522210018 65 83 10.0 12.0 0.00 0.00 0.00 17 1017.0
20220522205018 64 44 4.0 8.0 0.00 0.00 0.00 17 1016.8